createdAt,value
2023-01-21T00:00:06.104Z,-4.07
2023-01-21T00:01:09.349Z,-4.03
2023-01-21T00:02:12.960Z,-3.93
2023-01-21T00:03:16.607Z,-3.92
2023-01-21T00:04:19.550Z,-3.87
2023-01-21T00:05:22.194Z,-3.81
2023-01-21T00:06:24.715Z,-3.76
2023-01-21T00:07:27.299Z,-3.70
2023-01-21T00:08:30.052Z,-3.66
2023-01-21T00:09:33.047Z,-3.59
2023-01-21T00:10:35.519Z,-3.51
2023-01-21T00:11:38.091Z,-3.42
2023-01-21T00:12:40.611Z,-3.37
2023-01-21T00:13:44.301Z,-3.29
2023-01-21T00:14:46.930Z,-3.25
2023-01-21T00:15:49.517Z,-3.19
2023-01-21T00:16:51.990Z,-3.14
2023-01-21T00:17:54.927Z,-3.02
2023-01-21T00:18:57.613Z,-3.03
2023-01-21T00:20:00.190Z,-2.97
2023-01-21T00:21:03.301Z,-2.93
2023-01-21T00:22:05.791Z,-2.88
2023-01-21T00:23:08.336Z,-2.85
2023-01-21T00:24:10.821Z,-2.82
2023-01-21T00:25:13.375Z,-2.76
2023-01-21T00:26:16.018Z,-2.74
2023-01-21T00:27:18.538Z,-2.70
2023-01-21T00:28:21.058Z,-2.65
2023-01-21T00:29:23.701Z,-2.60
2023-01-21T00:30:26.225Z,-2.58
2023-01-21T00:31:28.838Z,-2.56
2023-01-21T00:32:31.381Z,-2.54
2023-01-21T00:33:34.987Z,-2.48
2023-01-21T00:34:37.622Z,-2.48
2023-01-21T00:35:42.287Z,-2.41
2023-01-21T00:36:44.836Z,-2.38
2023-01-21T00:37:47.349Z,-2.33
2023-01-21T00:38:50.001Z,-2.29
2023-01-21T00:39:52.506Z,-2.25
2023-01-21T00:41:03.671Z,-2.18
2023-01-21T00:42:06.428Z,-2.13
2023-01-21T00:43:08.948Z,-2.09
2023-01-21T00:44:11.475Z,-2.04
2023-01-21T00:45:14.117Z,-1.98
2023-01-21T00:46:17.009Z,-1.90
2023-01-21T00:47:19.873Z,-1.92
2023-01-21T00:48:22.512Z,-1.85
2023-01-21T00:49:25.039Z,-1.84
2023-01-21T00:50:27.560Z,-1.77
2023-01-21T00:51:30.075Z,-1.72
2023-01-21T00:52:32.605Z,-1.66
2023-01-21T00:53:38.253Z,-1.63
2023-01-21T00:54:40.763Z,-1.56
2023-01-21T00:55:43.287Z,-1.56
2023-01-21T00:56:45.917Z,-1.54
2023-01-21T00:57:48.438Z,-1.46
2023-01-21T00:58:50.963Z,-1.45
2023-01-21T00:59:53.718Z,-1.43
2023-01-21T01:01:11.634Z,-1.35
2023-01-21T01:02:14.249Z,-1.41
2023-01-21T01:03:16.767Z,-1.40
2023-01-21T01:04:20.135Z,-1.39
2023-01-21T01:05:22.649Z,-1.40
2023-01-21T01:06:25.177Z,-1.42
2023-01-21T01:07:27.819Z,-1.42
2023-01-21T01:08:30.463Z,-1.41
2023-01-21T01:09:33.098Z,-1.39
2023-01-21T01:10:37.898Z,-1.34
2023-01-21T01:11:40.419Z,-1.37
2023-01-21T01:12:43.981Z,-1.35
2023-01-21T01:13:46.664Z,-1.34
2023-01-21T01:14:49.314Z,-1.32
2023-01-21T01:15:56.106Z,-1.30
2023-01-21T01:16:58.794Z,-1.31
2023-01-21T01:18:01.550Z,-1.28
2023-01-21T01:19:04.311Z,-1.27
2023-01-21T01:20:07.795Z,-1.24
2023-01-21T01:21:13.436Z,-1.22
2023-01-21T01:22:16.438Z,-1.23
2023-01-21T01:23:19.678Z,-1.17
2023-01-21T01:24:22.564Z,-1.16
2023-01-21T01:25:25.465Z,-1.16
2023-01-21T01:26:28.564Z,-1.14
2023-01-21T01:27:31.575Z,-1.13
2023-01-21T01:28:34.973Z,-1.11
2023-01-21T01:29:38.053Z,-1.09
2023-01-21T01:30:41.204Z,-1.07
2023-01-21T01:31:44.590Z,-1.05
2023-01-21T01:32:47.654Z,-1.05
2023-01-21T01:33:50.778Z,-1.03
2023-01-21T01:34:53.904Z,-1.02
2023-01-21T01:36:05.561Z,-0.97
2023-01-21T01:37:08.664Z,-0.96
2023-01-21T01:38:12.024Z,-0.93
2023-01-21T01:39:15.269Z,-0.90
2023-01-21T01:40:18.695Z,-0.87
2023-01-21T01:41:27.850Z,-0.82
2023-01-21T01:42:31.112Z,-0.88
2023-01-21T01:43:53.826Z,-0.79
2023-01-21T01:45:02.919Z,-0.80
2023-01-21T01:46:06.074Z,-0.83
2023-01-21T01:47:09.280Z,-0.82
2023-01-21T01:48:18.280Z,-0.81
2023-01-21T01:49:22.129Z,-0.82
2023-01-21T01:50:29.213Z,-0.78
2023-01-21T01:51:57.532Z,-0.67
2023-01-21T01:53:01.868Z,-0.68
2023-01-21T01:54:06.181Z,-0.71
2023-01-21T01:55:11.340Z,-0.71
2023-01-21T01:56:16.252Z,-0.70
2023-01-21T01:57:22.855Z,-0.71
2023-01-21T01:58:25.979Z,-0.74
2023-01-21T01:59:30.790Z,-0.71
2023-01-21T02:00:35.340Z,-0.70
2023-01-21T02:01:38.363Z,-0.69
2023-01-21T02:02:43.196Z,-0.65
2023-01-21T02:03:53.225Z,-0.54
2023-01-21T02:04:59.588Z,-0.55
2023-01-21T02:06:03.201Z,-0.58
2023-01-21T02:07:06.071Z,-0.58
2023-01-21T02:08:09.609Z,-0.67
2023-01-21T02:09:12.372Z,-0.66
2023-01-21T02:10:19.982Z,-0.62
2023-01-21T02:11:22.815Z,-0.60
2023-01-21T02:12:25.759Z,-0.65
2023-01-21T02:13:31.761Z,-0.64
2023-01-21T02:14:42.870Z,-0.70
2023-01-21T02:16:16.024Z,-0.81
2023-01-21T02:17:43.647Z,-0.84
2023-01-21T02:18:55.053Z,-1.01
2023-01-21T02:20:16.215Z,-1.20
2023-01-21T02:21:37.415Z,-1.25
2023-01-21T02:23:07.815Z,-1.27
2023-01-21T02:24:34.590Z,-1.17
2023-01-21T02:25:36.976Z,-1.27
2023-01-21T02:26:45.382Z,-1.37
2023-01-21T02:27:55.062Z,-1.48
2023-01-21T02:29:23.180Z,-1.62
2023-01-21T02:30:47.685Z,-1.80
2023-01-21T02:32:05.059Z,-1.93
2023-01-21T02:33:23.676Z,-1.91
2023-01-21T02:34:34.926Z,-1.97
2023-01-21T02:35:48.262Z,-2.08
2023-01-21T02:37:02.061Z,-2.12
2023-01-21T02:38:16.104Z,-2.21
2023-01-21T02:39:57.393Z,-2.19
2023-01-21T02:41:25.704Z,-2.18
2023-01-21T02:42:58.710Z,-2.16
2023-01-21T02:44:13.348Z,-2.07
2023-01-21T02:45:39.406Z,-1.89
2023-01-21T02:46:47.595Z,-1.80
2023-01-21T02:47:57.045Z,-1.72
2023-01-21T02:49:07.486Z,-1.74
2023-01-21T02:50:19.104Z,-1.76
2023-01-21T02:51:23.319Z,-1.80
2023-01-21T02:52:26.554Z,-1.79
2023-01-21T02:53:34.599Z,-1.75
2023-01-21T02:54:40.304Z,-1.73
2023-01-21T02:55:43.607Z,-1.72
2023-01-21T02:56:46.235Z,-1.68
2023-01-21T02:57:53.077Z,-1.58
2023-01-21T02:58:59.796Z,-1.56
2023-01-21T03:00:08.201Z,-1.56
2023-01-21T03:01:46.760Z,-1.54
2023-01-21T03:02:52.121Z,-1.57
2023-01-21T03:04:25.483Z,-1.51
2023-01-21T03:05:49.367Z,-1.46
2023-01-21T03:07:12.051Z,-1.44
2023-01-21T03:08:30.538Z,-1.47
2023-01-21T03:09:34.381Z,-1.42
2023-01-21T03:10:44.456Z,-1.38
2023-01-21T03:11:56.821Z,-1.40
2023-01-21T03:13:07.139Z,-1.38
2023-01-21T03:14:39.062Z,-1.39
2023-01-21T03:16:12.860Z,-1.38
2023-01-21T03:17:33.670Z,-1.34
2023-01-21T03:18:45.454Z,-1.31
2023-01-21T03:20:07.529Z,-1.29
2023-01-21T03:21:17.232Z,-1.28
2023-01-21T03:22:24.794Z,-1.25
2023-01-21T03:23:34.396Z,-1.18
2023-01-21T03:24:40.884Z,-1.15
2023-01-21T03:25:46.402Z,-1.14
2023-01-21T03:26:53.964Z,-1.13
2023-01-21T03:27:58.812Z,-1.14
2023-01-21T03:29:10.287Z,-1.09
2023-01-21T03:30:19.162Z,-1.09
2023-01-21T03:31:28.509Z,-1.09
2023-01-21T03:32:35.130Z,-1.09
2023-01-21T03:33:41.023Z,-1.06
2023-01-21T03:34:51.454Z,-1.04
2023-01-21T03:35:56.259Z,-1.07
2023-01-21T03:37:08.384Z,-1.03
2023-01-21T03:38:17.506Z,-1.05
2023-01-21T03:39:56.148Z,-0.96
2023-01-21T03:41:06.225Z,-0.94
2023-01-21T03:42:10.064Z,-0.95
2023-01-21T03:43:13.308Z,-0.95
2023-01-21T03:44:17.035Z,-0.92
2023-01-21T03:45:36.973Z,-0.88
2023-01-21T03:47:14.516Z,-0.79
2023-01-21T03:48:25.436Z,-0.77
2023-01-21T03:50:14.919Z,-0.71
2023-01-21T03:51:28.200Z,-0.68
2023-01-21T03:52:31.931Z,-0.74
2023-01-21T03:53:35.172Z,-0.72
2023-01-21T03:54:39.368Z,-0.69
2023-01-21T03:55:42.611Z,-0.68
2023-01-21T03:56:45.738Z,-0.59
2023-01-21T03:57:49.092Z,-0.64
2023-01-21T03:58:52.214Z,-0.65
2023-01-21T03:59:56.657Z,-0.65
2023-01-21T04:01:00.070Z,-0.69
2023-01-21T04:02:03.239Z,-0.68
2023-01-21T04:03:06.147Z,-0.62
2023-01-21T04:04:10.581Z,-0.55
2023-01-21T04:05:14.422Z,-0.53
2023-01-21T04:06:23.105Z,-0.50
2023-01-21T04:07:25.948Z,-0.53
2023-01-21T04:08:28.604Z,-0.56
2023-01-21T04:09:31.164Z,-0.51
2023-01-21T04:10:33.753Z,-0.53
2023-01-21T04:11:36.332Z,-0.53
2023-01-21T04:12:38.971Z,-0.44
2023-01-21T04:13:41.810Z,-0.43
2023-01-21T04:14:44.492Z,-0.49
2023-01-21T04:15:47.130Z,-0.50
2023-01-21T04:16:49.655Z,-0.53
2023-01-21T04:17:52.370Z,-0.54
2023-01-21T04:18:55.182Z,-0.48
2023-01-21T04:19:57.811Z,-0.48
2023-01-21T04:21:00.454Z,-0.48
2023-01-21T04:22:03.056Z,-0.48
2023-01-21T04:23:05.693Z,-0.50
2023-01-21T04:24:08.255Z,-0.53
2023-01-21T04:25:10.780Z,-0.57
2023-01-21T04:26:13.421Z,-0.58
2023-01-21T04:27:15.900Z,-0.58
2023-01-21T04:28:19.536Z,-0.49
2023-01-21T04:29:22.059Z,-0.53
2023-01-21T04:30:24.586Z,-0.55
2023-01-21T04:31:27.103Z,-0.60
2023-01-21T04:32:29.739Z,-0.57
2023-01-21T04:33:32.258Z,-0.59
2023-01-21T04:34:34.785Z,-0.57
2023-01-21T04:35:37.422Z,-0.57
2023-01-21T04:36:39.957Z,-0.57
2023-01-21T04:37:42.481Z,-0.57
2023-01-21T04:38:44.986Z,-0.55
2023-01-21T04:39:47.505Z,-0.57
2023-01-21T04:40:50.031Z,-0.57
2023-01-21T04:41:52.666Z,-0.56
2023-01-21T04:42:55.187Z,-0.56
2023-01-21T04:43:57.717Z,-0.54
2023-01-21T04:45:00.348Z,-0.52
2023-01-21T04:46:03.026Z,-0.52
2023-01-21T04:47:05.641Z,-0.51
2023-01-21T04:48:08.271Z,-0.52
2023-01-21T04:49:10.798Z,-0.50
2023-01-21T04:50:14.803Z,-0.48
2023-01-21T04:51:17.465Z,-0.50
2023-01-21T04:52:20.156Z,-0.50
2023-01-21T04:53:22.681Z,-0.49
2023-01-21T04:54:25.317Z,-0.46
2023-01-21T04:55:27.957Z,-0.42
2023-01-21T04:56:30.479Z,-0.43
2023-01-21T04:57:32.996Z,-0.42
2023-01-21T04:58:35.524Z,-0.39
2023-01-21T04:59:38.159Z,-0.38
2023-01-21T05:00:40.680Z,-0.38
2023-01-21T05:01:43.101Z,-0.38
2023-01-21T05:02:45.608Z,-0.35
2023-01-21T05:03:48.124Z,-0.26
2023-01-21T05:04:50.644Z,-0.18
2023-01-21T05:05:53.176Z,-0.13
2023-01-21T05:06:56.286Z,-0.12
2023-01-21T05:07:58.807Z,-0.15
2023-01-21T05:09:01.329Z,-0.20
2023-01-21T05:10:03.980Z,-0.26
2023-01-21T05:11:09.513Z,-0.27
2023-01-21T05:12:12.014Z,-0.34
2023-01-21T05:13:14.537Z,-0.39
2023-01-21T05:14:17.178Z,-0.42
2023-01-21T05:15:19.958Z,-0.47
2023-01-21T05:16:23.281Z,-0.45
2023-01-21T05:17:26.549Z,-0.53
2023-01-21T05:18:29.064Z,-0.60
2023-01-21T05:19:31.587Z,-0.66
2023-01-21T05:20:34.348Z,-0.72
2023-01-21T05:21:36.868Z,-0.79
2023-01-21T05:22:39.635Z,-0.77
2023-01-21T05:23:42.401Z,-0.85
2023-01-21T05:24:45.285Z,-0.92
2023-01-21T05:25:49.368Z,-0.96
2023-01-21T05:26:52.360Z,-1.04
2023-01-21T05:27:55.603Z,-1.07
2023-01-21T05:28:58.609Z,-1.10
2023-01-21T05:30:01.616Z,-0.99
2023-01-21T05:31:05.103Z,-0.72
2023-01-21T05:32:08.093Z,-0.56
2023-01-21T05:33:11.209Z,-0.49
2023-01-21T05:34:14.330Z,-0.41
2023-01-21T05:35:19.494Z,-0.30
2023-01-21T05:36:22.747Z,-0.24
2023-01-21T05:37:25.856Z,-0.20
2023-01-21T05:38:48.911Z,-0.21
2023-01-21T05:39:52.063Z,-0.31
2023-01-21T05:41:02.582Z,-0.31
2023-01-21T05:42:05.704Z,-0.36
2023-01-21T05:43:08.827Z,-0.37
2023-01-21T05:44:11.946Z,-0.40
2023-01-21T05:45:15.549Z,-0.39
2023-01-21T05:46:18.693Z,-0.37
2023-01-21T05:47:21.795Z,-0.39
2023-01-21T05:48:25.155Z,-0.39
2023-01-21T05:49:28.277Z,-0.41
2023-01-21T05:50:32.979Z,-0.41
2023-01-21T05:51:36.115Z,-0.39
2023-01-21T05:52:39.923Z,-0.39
2023-01-21T05:53:43.163Z,-0.40
2023-01-21T05:55:00.652Z,-0.41
2023-01-21T05:56:05.491Z,-0.40
2023-01-21T05:57:08.613Z,-0.33
2023-01-21T05:58:11.969Z,-0.35
2023-01-21T05:59:15.212Z,-0.33
2023-01-21T06:00:19.335Z,-0.31
2023-01-21T06:01:23.023Z,-0.26
2023-01-21T06:02:26.322Z,-0.23
2023-01-21T06:03:29.766Z,-0.21
2023-01-21T06:04:32.739Z,-0.12
2023-01-21T06:05:35.504Z,-0.06
2023-01-21T06:06:38.386Z,-0.04
2023-01-21T06:07:41.032Z,-0.05
2023-01-21T06:08:43.909Z,-0.05
2023-01-21T06:09:46.667Z,-0.07
2023-01-21T06:10:49.681Z,-0.05
2023-01-21T06:11:52.315Z,0.03
2023-01-21T06:12:55.081Z,0.04
2023-01-21T06:13:57.615Z,0.05
2023-01-21T06:15:00.648Z,0.05
2023-01-21T06:16:03.318Z,0.02
2023-01-21T06:17:05.808Z,0.00
2023-01-21T06:18:08.816Z,0.02
2023-01-21T06:19:11.413Z,-0.01
2023-01-21T06:20:14.213Z,0.07
2023-01-21T06:21:16.750Z,0.09
2023-01-21T06:22:24.200Z,0.14
2023-01-21T06:23:27.970Z,0.13
2023-01-21T06:24:30.737Z,0.15
2023-01-21T06:25:34.464Z,0.11
2023-01-21T06:26:37.013Z,0.14
2023-01-21T06:27:39.792Z,0.18
2023-01-21T06:28:42.669Z,0.14
2023-01-21T06:29:45.308Z,0.13
2023-01-21T06:30:47.996Z,0.14
2023-01-21T06:31:50.850Z,0.15
2023-01-21T06:32:53.717Z,0.17
2023-01-21T06:33:56.189Z,0.13
2023-01-21T06:34:58.862Z,0.13
2023-01-21T06:36:01.382Z,0.12
2023-01-21T06:37:04.023Z,0.11
2023-01-21T06:38:06.543Z,0.10
2023-01-21T06:39:12.086Z,0.14
2023-01-21T06:40:15.490Z,0.14
2023-01-21T06:41:18.302Z,0.13
2023-01-21T06:42:21.066Z,0.12
2023-01-21T06:43:23.592Z,0.12
2023-01-21T06:44:26.109Z,0.10
2023-01-21T06:45:28.745Z,0.09
2023-01-21T06:46:31.428Z,0.09
2023-01-21T06:47:34.034Z,0.09
2023-01-21T06:48:36.676Z,0.14
2023-01-21T06:49:39.677Z,0.14
2023-01-21T06:50:42.194Z,0.16
2023-01-21T06:51:44.711Z,0.25
2023-01-21T06:52:48.801Z,0.27
2023-01-21T06:53:51.433Z,0.20
2023-01-21T06:54:53.951Z,0.16
2023-01-21T06:55:56.474Z,0.21
2023-01-21T06:56:59.248Z,0.24
2023-01-21T06:58:01.752Z,0.23
2023-01-21T06:59:04.878Z,0.22
2023-01-21T07:00:08.743Z,0.16
2023-01-21T07:01:11.245Z,0.16
2023-01-21T07:02:13.767Z,0.10
2023-01-21T07:03:16.281Z,0.04
2023-01-21T07:04:18.800Z,-0.01
2023-01-21T07:05:21.236Z,-0.02
2023-01-21T07:06:23.734Z,-0.02
2023-01-21T07:07:26.754Z,0.01
2023-01-21T07:08:29.249Z,0.09
2023-01-21T07:09:32.128Z,0.09
2023-01-21T07:10:34.648Z,0.04
2023-01-21T07:11:37.298Z,-0.01
2023-01-21T07:12:39.816Z,-0.04
2023-01-21T07:13:42.334Z,-0.06
2023-01-21T07:14:44.855Z,-0.08
2023-01-21T07:15:48.037Z,-0.08
2023-01-21T07:16:50.756Z,-0.08
2023-01-21T07:17:54.462Z,-0.06
2023-01-21T07:18:57.102Z,-0.05
2023-01-21T07:19:59.869Z,-0.04
2023-01-21T07:21:02.627Z,-0.03
2023-01-21T07:22:05.169Z,-0.04
2023-01-21T07:23:08.394Z,-0.04
2023-01-21T07:24:12.358Z,-0.06
2023-01-21T07:25:15.555Z,-0.06
2023-01-21T07:26:19.318Z,-0.06
2023-01-21T07:27:24.244Z,-0.06
2023-01-21T07:28:27.239Z,-0.06
2023-01-21T07:29:30.119Z,-0.06
2023-01-21T07:30:33.122Z,0.00
2023-01-21T07:31:36.371Z,-0.02
2023-01-21T07:32:39.488Z,-0.02
2023-01-21T07:33:42.609Z,0.00
2023-01-21T07:34:45.731Z,-0.02
2023-01-21T07:35:48.847Z,-0.01
2023-01-21T07:36:52.330Z,-0.02
2023-01-21T07:37:55.458Z,-0.02
2023-01-21T07:38:58.821Z,-0.05
2023-01-21T07:40:01.942Z,-0.04
2023-01-21T07:41:05.064Z,-0.04
2023-01-21T07:42:10.471Z,-0.03
2023-01-21T07:43:13.584Z,-0.05
2023-01-21T07:44:16.716Z,-0.05
2023-01-21T07:45:20.786Z,-0.05
2023-01-21T07:46:24.441Z,-0.04
2023-01-21T07:47:27.631Z,-0.05
2023-01-21T07:48:30.870Z,-0.05
2023-01-21T07:49:33.995Z,-0.04
2023-01-21T07:50:37.833Z,0.06
2023-01-21T07:51:41.079Z,0.09
2023-01-21T07:52:44.197Z,0.14
2023-01-21T07:53:47.811Z,0.20
2023-01-21T07:54:51.048Z,0.22
2023-01-21T07:55:54.283Z,0.23
2023-01-21T07:56:57.526Z,0.24
2023-01-21T07:58:00.905Z,0.30
2023-01-21T07:59:04.247Z,0.33
2023-01-21T08:00:08.811Z,0.33
2023-01-21T08:01:14.692Z,0.33
2023-01-21T08:02:18.201Z,0.31
2023-01-21T08:03:23.577Z,0.28
2023-01-21T08:04:26.816Z,0.29
2023-01-21T08:05:29.939Z,0.29
2023-01-21T08:06:32.820Z,0.28
2023-01-21T08:07:35.941Z,0.33
2023-01-21T08:08:38.823Z,0.36
2023-01-21T08:09:41.829Z,0.40
2023-01-21T08:10:44.830Z,0.52
2023-01-21T08:11:47.590Z,0.46
2023-01-21T08:12:50.356Z,0.48
2023-01-21T08:13:53.112Z,0.45
2023-01-21T08:14:55.757Z,0.46
2023-01-21T08:15:58.695Z,0.43
2023-01-21T08:17:01.996Z,0.44
2023-01-21T08:18:04.641Z,0.43
2023-01-21T08:19:07.208Z,0.49
2023-01-21T08:20:11.289Z,0.56
2023-01-21T08:21:13.814Z,0.54
2023-01-21T08:22:16.334Z,0.53
2023-01-21T08:23:18.854Z,0.53
2023-01-21T08:24:21.733Z,0.54
2023-01-21T08:25:24.221Z,0.56
2023-01-21T08:26:26.895Z,0.62
2023-01-21T08:27:29.412Z,0.63
2023-01-21T08:28:31.898Z,0.66
2023-01-21T08:29:34.575Z,0.71
2023-01-21T08:30:37.248Z,0.70
2023-01-21T08:31:39.926Z,0.69
2023-01-21T08:32:42.496Z,0.75
2023-01-21T08:33:45.407Z,0.83
2023-01-21T08:34:47.866Z,0.91
2023-01-21T08:35:50.419Z,0.97
2023-01-21T08:36:53.033Z,0.96
2023-01-21T08:37:57.623Z,1.04
2023-01-21T08:39:02.104Z,1.09
2023-01-21T08:40:04.956Z,1.07
2023-01-21T08:41:07.679Z,1.01
2023-01-21T08:42:10.341Z,1.09
2023-01-21T08:43:13.228Z,1.10
2023-01-21T08:44:15.871Z,1.13
2023-01-21T08:45:18.918Z,1.14
2023-01-21T08:46:21.747Z,1.18
2023-01-21T08:47:25.496Z,1.17
2023-01-21T08:48:29.924Z,1.19
2023-01-21T08:49:35.204Z,1.17
2023-01-21T08:50:38.082Z,1.10
2023-01-21T08:51:41.686Z,1.06
2023-01-21T08:52:51.154Z,1.23
2023-01-21T08:53:53.799Z,1.14
2023-01-21T08:54:56.311Z,1.15
2023-01-21T08:56:03.639Z,1.17
2023-01-21T08:57:06.519Z,1.18
2023-01-21T08:58:09.169Z,1.23
2023-01-21T08:59:11.674Z,1.28
2023-01-21T09:00:14.673Z,1.29
2023-01-21T09:01:17.218Z,1.28
2023-01-21T09:02:19.904Z,1.27
2023-01-21T09:03:22.719Z,1.33
2023-01-21T09:04:25.245Z,1.37
2023-01-21T09:05:27.756Z,1.40
2023-01-21T09:06:30.648Z,1.44
2023-01-21T09:07:33.167Z,1.41
2023-01-21T09:08:36.642Z,1.42
2023-01-21T09:09:39.163Z,1.48
2023-01-21T09:11:00.534Z,1.52
2023-01-21T09:12:04.871Z,1.52
2023-01-21T09:13:08.951Z,1.63
2023-01-21T09:14:11.708Z,1.56
2023-01-21T09:15:14.634Z,1.56
2023-01-21T09:16:20.602Z,1.66
2023-01-21T09:17:23.581Z,1.67
2023-01-21T09:18:26.217Z,1.67
2023-01-21T09:19:29.100Z,1.72
2023-01-21T09:20:31.758Z,1.69
2023-01-21T09:21:37.995Z,1.78
2023-01-21T09:22:40.506Z,1.79
2023-01-21T09:23:43.277Z,1.83
2023-01-21T09:24:46.037Z,1.87
2023-01-21T09:25:48.670Z,1.94
2023-01-21T09:26:51.671Z,2.00
2023-01-21T09:27:54.570Z,2.01
2023-01-21T09:28:59.356Z,2.10
2023-01-21T09:30:02.360Z,2.23
2023-01-21T09:31:08.603Z,2.29
2023-01-21T09:32:11.480Z,2.40
2023-01-21T09:33:15.811Z,2.40
2023-01-21T09:34:18.803Z,2.56
2023-01-21T09:35:21.935Z,2.56
2023-01-21T09:36:28.410Z,2.72
2023-01-21T09:37:35.014Z,2.64
2023-01-21T09:38:38.251Z,2.64
2023-01-21T09:39:41.374Z,2.63
2023-01-21T09:40:46.417Z,2.64
2023-01-21T09:41:55.656Z,2.62
2023-01-21T09:43:03.458Z,2.64
2023-01-21T09:44:15.461Z,2.59
2023-01-21T09:45:20.621Z,2.62
2023-01-21T09:46:32.625Z,2.67
2023-01-21T09:47:41.987Z,2.57
2023-01-21T09:48:47.630Z,2.62
2023-01-21T09:49:55.708Z,2.60
2023-01-21T09:51:03.772Z,2.52
2023-01-21T09:52:43.914Z,2.59
2023-01-21T09:53:53.395Z,2.66
2023-01-21T09:54:58.706Z,2.63
2023-01-21T09:56:11.519Z,2.63
2023-01-21T09:57:23.526Z,2.64
2023-01-21T09:58:35.163Z,2.57
2023-01-21T09:59:47.897Z,2.55
2023-01-21T10:01:17.433Z,2.60
2023-01-21T10:02:54.133Z,2.62
2023-01-21T10:04:06.016Z,2.66
2023-01-21T10:05:40.340Z,2.65
2023-01-21T10:06:51.857Z,2.62
2023-01-21T10:08:06.141Z,2.61
2023-01-21T10:09:42.382Z,2.60
2023-01-21T10:10:56.307Z,2.56
2023-01-21T10:12:13.346Z,2.51
2023-01-21T10:13:25.378Z,2.38
2023-01-21T10:14:36.868Z,2.47
2023-01-21T10:15:49.241Z,2.42
2023-01-21T10:17:12.327Z,2.41
2023-01-21T10:18:20.314Z,2.43
2023-01-21T10:19:28.528Z,2.47
2023-01-21T10:20:44.490Z,2.49
2023-01-21T10:21:51.098Z,2.55
2023-01-21T10:23:04.415Z,2.58
2023-01-21T10:24:12.404Z,2.62
2023-01-21T10:25:30.234Z,2.59
2023-01-21T10:26:34.729Z,2.63
2023-01-21T10:27:38.570Z,2.60
2023-01-21T10:28:47.931Z,2.60
2023-01-21T10:29:57.654Z,2.53
2023-01-21T10:31:11.841Z,2.47
2023-01-21T10:32:18.788Z,2.46
2023-01-21T10:33:25.306Z,2.50
2023-01-21T10:34:32.614Z,2.49
2023-01-21T10:35:46.143Z,2.59
2023-01-21T10:36:59.626Z,2.56
2023-01-21T10:38:16.416Z,2.71
2023-01-21T10:39:43.071Z,2.79
2023-01-21T10:41:08.740Z,2.88
2023-01-21T10:42:37.759Z,2.89
2023-01-21T10:43:55.068Z,2.97
2023-01-21T10:44:57.705Z,2.98
2023-01-21T10:46:31.665Z,3.02
2023-01-21T10:47:36.948Z,2.97
2023-01-21T10:48:46.904Z,3.05
2023-01-21T10:50:46.457Z,3.09
2023-01-21T10:52:34.441Z,3.13
2023-01-21T10:54:18.130Z,3.00
2023-01-21T10:55:57.950Z,3.12
2023-01-21T10:57:21.830Z,3.22
2023-01-21T10:58:36.115Z,3.17
2023-01-21T10:59:40.325Z,3.18
2023-01-21T11:00:48.715Z,3.12
2023-01-21T11:02:02.753Z,3.19
2023-01-21T11:03:16.922Z,3.22
2023-01-21T11:04:24.256Z,3.33
2023-01-21T11:05:27.368Z,3.35
2023-01-21T11:06:33.614Z,3.45
2023-01-21T11:07:40.081Z,3.52
2023-01-21T11:08:45.727Z,3.60
2023-01-21T11:09:49.207Z,3.57
2023-01-21T11:10:56.171Z,3.68
2023-01-21T11:11:58.806Z,3.59
2023-01-21T11:13:01.333Z,3.71
2023-01-21T11:14:03.848Z,3.75
2023-01-21T11:15:20.451Z,3.88
2023-01-21T11:16:45.040Z,3.99
2023-01-21T11:17:50.533Z,3.94
2023-01-21T11:18:54.023Z,4.10
2023-01-21T11:20:01.470Z,4.03
2023-01-21T11:21:19.577Z,4.11
2023-01-21T11:22:23.567Z,3.96
2023-01-21T11:23:31.473Z,3.92
2023-01-21T11:24:51.662Z,4.00
2023-01-21T11:26:10.260Z,3.95
2023-01-21T11:27:28.850Z,3.91
2023-01-21T11:28:31.948Z,3.85
2023-01-21T11:29:41.432Z,3.86
2023-01-21T11:30:51.131Z,3.68
2023-01-21T11:32:05.474Z,3.59
2023-01-21T11:33:13.597Z,3.59
2023-01-21T11:34:17.921Z,3.54
2023-01-21T11:35:23.320Z,3.58
2023-01-21T11:36:26.442Z,3.55
2023-01-21T11:37:31.724Z,3.64
2023-01-21T11:38:36.533Z,3.67
2023-01-21T11:39:56.326Z,3.76
2023-01-21T11:41:10.836Z,3.81
2023-01-21T11:42:17.455Z,3.89
2023-01-21T11:43:46.017Z,3.99
2023-01-21T11:45:22.377Z,3.91
2023-01-21T11:46:36.899Z,3.97
2023-01-21T11:47:50.220Z,4.00
2023-01-21T11:49:16.389Z,4.03
2023-01-21T11:50:26.596Z,4.09
2023-01-21T11:51:29.825Z,4.06
2023-01-21T11:52:32.951Z,4.05
2023-01-21T11:53:36.071Z,3.98
2023-01-21T11:54:40.755Z,4.01
2023-01-21T11:55:53.844Z,4.09
2023-01-21T11:57:00.435Z,4.23
2023-01-21T11:58:03.798Z,4.26
2023-01-21T11:59:42.203Z,4.30
2023-01-21T12:00:47.863Z,4.60
2023-01-21T12:01:59.125Z,5.02
2023-01-21T12:03:06.331Z,5.16
2023-01-21T12:04:15.935Z,5.34
2023-01-21T12:05:43.532Z,5.50
2023-01-21T12:06:49.055Z,5.67
2023-01-21T12:07:53.016Z,5.79
2023-01-21T12:09:02.740Z,5.97
2023-01-21T12:10:27.697Z,6.36
2023-01-21T12:11:31.902Z,6.64
2023-01-21T12:12:53.384Z,6.99
2023-01-21T12:14:15.468Z,6.96
2023-01-21T12:15:25.427Z,7.12
2023-01-21T12:16:33.724Z,7.08
2023-01-21T12:17:56.631Z,7.02
2023-01-21T12:19:17.996Z,6.63
2023-01-21T12:20:29.161Z,6.47
2023-01-21T12:21:43.680Z,6.34
2023-01-21T12:23:01.498Z,6.17
2023-01-21T12:24:06.647Z,5.90
2023-01-21T12:25:46.208Z,5.92
2023-01-21T12:26:56.285Z,5.76
2023-01-21T12:28:15.294Z,5.79
2023-01-21T12:29:39.058Z,5.70
2023-01-21T12:31:14.287Z,5.69
2023-01-21T12:32:43.252Z,5.63
2023-01-21T12:33:52.014Z,5.42
2023-01-21T12:35:08.822Z,5.42
2023-01-21T12:36:19.383Z,5.33
2023-01-21T12:37:55.016Z,5.32
2023-01-21T12:39:09.541Z,5.16
2023-01-21T12:40:33.059Z,5.25
2023-01-21T12:41:38.457Z,5.21
2023-01-21T12:42:48.058Z,5.21
2023-01-21T12:44:12.059Z,5.20
2023-01-21T12:45:19.869Z,5.25
2023-01-21T12:46:35.297Z,5.25
2023-01-21T12:47:46.845Z,5.16
2023-01-21T12:49:12.431Z,5.02
2023-01-21T12:50:17.563Z,4.96
2023-01-21T12:51:38.710Z,5.01
2023-01-21T12:53:06.673Z,4.95
2023-01-21T12:54:23.712Z,5.02
2023-01-21T12:55:51.067Z,5.09
2023-01-21T12:57:34.874Z,5.11
2023-01-21T12:58:45.309Z,5.17
2023-01-21T13:00:00.799Z,5.14
2023-01-21T13:01:13.358Z,5.03
2023-01-21T13:02:18.702Z,5.00
2023-01-21T13:03:37.517Z,5.04
2023-01-21T13:05:08.966Z,5.14
2023-01-21T13:06:29.726Z,5.20
2023-01-21T13:07:56.963Z,5.19
2023-01-21T13:09:16.160Z,5.21
2023-01-21T13:10:39.315Z,5.05
2023-01-21T13:12:11.369Z,5.01
2023-01-21T13:13:28.936Z,5.03
2023-01-21T13:14:39.083Z,5.27
2023-01-21T13:15:45.563Z,5.26
2023-01-21T13:16:53.368Z,5.39
2023-01-21T13:18:02.157Z,5.54
2023-01-21T13:19:04.897Z,5.49
2023-01-21T13:20:18.510Z,5.55
2023-01-21T13:21:47.857Z,5.54
2023-01-21T13:23:07.418Z,5.49
2023-01-21T13:24:43.419Z,5.42
2023-01-21T13:26:00.164Z,5.29
2023-01-21T13:27:15.593Z,5.14
2023-01-21T13:28:26.990Z,5.06
2023-01-21T13:30:09.952Z,5.01
2023-01-21T13:31:17.867Z,4.97
2023-01-21T13:32:59.874Z,4.95
2023-01-21T13:34:39.313Z,5.05
2023-01-21T13:35:47.998Z,5.02
2023-01-21T13:36:59.999Z,5.06
2023-01-21T13:38:42.613Z,5.16
2023-01-21T13:39:55.445Z,5.23
2023-01-21T13:41:38.532Z,5.37
2023-01-21T13:42:56.181Z,5.43
2023-01-21T13:44:20.772Z,5.30
2023-01-21T13:45:38.915Z,5.22
2023-01-21T13:46:59.776Z,5.22
2023-01-21T13:48:41.910Z,5.16
2023-01-21T13:50:18.108Z,4.99
2023-01-21T13:51:33.503Z,4.92
2023-01-21T13:52:42.634Z,4.79
2023-01-21T13:53:58.011Z,4.78
2023-01-21T13:55:14.430Z,4.78
2023-01-21T13:56:27.392Z,4.78
2023-01-21T13:57:39.275Z,4.67
2023-01-21T13:59:01.238Z,4.62
2023-01-21T14:00:29.198Z,4.69
2023-01-21T14:01:46.322Z,4.70
2023-01-21T14:03:16.963Z,4.81
2023-01-21T14:04:59.206Z,4.82
2023-01-21T14:06:11.448Z,4.89
2023-01-21T14:07:30.410Z,4.84
2023-01-21T14:08:43.850Z,4.81
2023-01-21T14:09:57.056Z,4.73
2023-01-21T14:11:09.656Z,4.74
2023-01-21T14:12:31.857Z,4.72
2023-01-21T14:14:08.102Z,4.63
2023-01-21T14:15:38.224Z,4.65
2023-01-21T14:16:55.869Z,4.60
2023-01-21T14:18:16.920Z,4.35
2023-01-21T14:19:28.990Z,4.37
2023-01-21T14:20:53.537Z,4.32
2023-01-21T14:22:23.406Z,4.19
2023-01-21T14:23:28.516Z,4.03
2023-01-21T14:24:33.917Z,3.97
2023-01-21T14:25:55.045Z,3.78
2023-01-21T14:27:22.051Z,3.82
2023-01-21T14:28:41.607Z,3.74
2023-01-21T14:30:13.452Z,3.64
2023-01-21T14:31:33.313Z,3.60
2023-01-21T14:32:50.733Z,3.54
2023-01-21T14:34:00.837Z,3.52
2023-01-21T14:35:13.946Z,3.37
2023-01-21T14:36:20.138Z,3.34
2023-01-21T14:37:34.934Z,3.33
2023-01-21T14:38:52.216Z,3.24
2023-01-21T14:40:30.377Z,3.29
2023-01-21T14:41:54.592Z,3.29
2023-01-21T14:42:58.010Z,3.21
2023-01-21T14:44:00.617Z,3.20
2023-01-21T14:45:08.075Z,3.25
2023-01-21T14:46:23.906Z,3.28
2023-01-21T14:47:29.421Z,3.20
2023-01-21T14:48:39.741Z,3.15
2023-01-21T14:49:45.631Z,3.12
2023-01-21T14:50:53.719Z,3.08
2023-01-21T14:51:56.306Z,3.01
2023-01-21T14:52:58.953Z,3.01
2023-01-21T14:54:09.742Z,3.03
2023-01-21T14:55:24.509Z,3.01
2023-01-21T14:56:32.425Z,2.95
2023-01-21T14:57:38.427Z,2.92
2023-01-21T14:58:52.712Z,2.92